Terminal Aerodrome Forecast
Issued by NWS Topeka, KS

Home | Current Version | Previous Version | Text Only | Print | Product List | Glossary Off
Versions: 1 2 3 4 5 6 7 8 9 10 11 12 13 14 15 16 17 18 19 20 21 22 23 24 25 26 27 28 29 30

377
FTUS43 KTOP 190553
TAFTOP
TAF
KTOP 190553Z 1906/2006 16016G24KT 5SM -DZ OVC008 WS013/21055KT
      TEMPO 1906/1909 OVC010
     FM190900 18015KT 3SM -DZ VCSH OVC008 WS013/21055KT
     FM191400 33008KT P6SM VCSH OVC015
     FM191800 36007KT P6SM OVC020
     FM192300 03006KT P6SM VCSH OVC015=

USA.gov is the U.S. government's official web portal to all federal, state and local government web resources and services.